sensor_id;sensor_type;location;lat;lon;timestamp;temperature;humidity
13742;DHT22;8461;52.356;10.704;2022-09-30T00:00:58;4.90;99.90
13742;DHT22;8461;52.356;10.704;2022-09-30T00:03:24;4.80;99.90
13742;DHT22;8461;52.356;10.704;2022-09-30T00:05:57;4.70;99.90
13742;DHT22;8461;52.356;10.704;2022-09-30T00:08:22;4.70;99.90
13742;DHT22;8461;52.356;10.704;2022-09-30T00:10:58;4.60;99.90
13742;DHT22;8461;52.356;10.704;2022-09-30T00:13:24;4.60;99.90
13742;DHT22;8461;52.356;10.704;2022-09-30T00:15:49;4.60;99.90
13742;DHT22;8461;52.356;10.704;2022-09-30T00:18:15;4.60;99.90
13742;DHT22;8461;52.356;10.704;2022-09-30T00:20:40;4.60;99.90
13742;DHT22;8461;52.356;10.704;2022-09-30T00:23:06;4.60;99.90
13742;DHT22;8461;52.356;10.704;2022-09-30T00:25:31;4.60;99.90
13742;DHT22;8461;52.356;10.704;2022-09-30T00:27:56;4.60;99.90
13742;DHT22;8461;52.356;10.704;2022-09-30T00:30:22;4.60;99.90
13742;DHT22;8461;52.356;10.704;2022-09-30T00:32:48;4.60;99.90
13742;DHT22;8461;52.356;10.704;2022-09-30T00:35:13;4.50;99.90
13742;DHT22;8461;52.356;10.704;2022-09-30T00:37:38;4.50;99.90
13742;DHT22;8461;52.356;10.704;2022-09-30T00:40:04;4.50;99.90
13742;DHT22;8461;52.356;10.704;2022-09-30T00:42:30;4.50;99.90
13742;DHT22;8461;52.356;10.704;2022-09-30T00:45:08;4.40;99.90
13742;DHT22;8461;52.356;10.704;2022-09-30T00:51:09;4.30;99.90
13742;DHT22;8461;52.356;10.704;2022-09-30T00:53:18;4.20;99.90
13742;DHT22;8461;52.356;10.704;2022-09-30T00:56:03;4.20;99.90
13742;DHT22;8461;52.356;10.704;2022-09-30T00:58:38;4.20;99.90
13742;DHT22;8461;52.356;10.704;2022-09-30T01:01:04;4.20;99.90
13742;DHT22;8461;52.356;10.704;2022-09-30T01:03:36;4.10;99.90
13742;DHT22;8461;52.356;10.704;2022-09-30T01:06:03;4.10;99.90
13742;DHT22;8461;52.356;10.704;2022-09-30T01:08:31;4.10;99.90
13742;DHT22;8461;52.356;10.704;2022-09-30T01:10:58;4.10;99.90
13742;DHT22;8461;52.356;10.704;2022-09-30T01:13:24;4.10;99.90
13742;DHT22;8461;52.356;10.704;2022-09-30T01:18:59;4.00;99.90
13742;DHT22;8461;52.356;10.704;2022-09-30T01:22:05;4.00;99.90
13742;DHT22;8461;52.356;10.704;2022-09-30T01:30:19;3.90;99.90
13742;DHT22;8461;52.356;10.704;2022-09-30T01:38:25;3.90;99.90
13742;DHT22;8461;52.356;10.704;2022-09-30T01:41:07;3.90;99.90
13742;DHT22;8461;52.356;10.704;2022-09-30T01:46:37;3.90;99.90
13742;DHT22;8461;52.356;10.704;2022-09-30T01:51:44;4.10;99.90
13742;DHT22;8461;52.356;10.704;2022-09-30T01:54:26;4.10;99.90
13742;DHT22;8461;52.356;10.704;2022-09-30T01:57:11;4.10;99.90
13742;DHT22;8461;52.356;10.704;2022-09-30T01:59:47;4.00;99.90
13742;DHT22;8461;52.356;10.704;2022-09-30T02:02:25;4.00;99.90
13742;DHT22;8461;52.356;10.704;2022-09-30T02:05:06;3.90;99.90
13742;DHT22;8461;52.356;10.704;2022-09-30T02:07:42;3.80;99.90
13742;DHT22;8461;52.356;10.704;2022-09-30T02:10:26;3.80;99.90
13742;DHT22;8461;52.356;10.704;2022-09-30T02:12:59;3.80;99.90
13742;DHT22;8461;52.356;10.704;2022-09-30T02:15:39;3.80;99.90
13742;DHT22;8461;52.356;10.704;2022-09-30T02:18:14;3.80;99.90
13742;DHT22;8461;52.356;10.704;2022-09-30T02:20:46;3.80;99.90
13742;DHT22;8461;52.356;10.704;2022-09-30T02:23:21;3.70;99.90
13742;DHT22;8461;52.356;10.704;2022-09-30T02:26:01;3.70;99.90
13742;DHT22;8461;52.356;10.704;2022-09-30T02:28:36;3.70;99.90
13742;DHT22;8461;52.356;10.704;2022-09-30T02:31:04;3.70;99.90
13742;DHT22;8461;52.356;10.704;2022-09-30T02:33:38;3.70;99.90
13742;DHT22;8461;52.356;10.704;2022-09-30T02:36:16;3.70;99.90
13742;DHT22;8461;52.356;10.704;2022-09-30T02:38:45;3.70;99.90
13742;DHT22;8461;52.356;10.704;2022-09-30T02:41:17;3.70;99.90
13742;DHT22;8461;52.356;10.704;2022-09-30T02:43:46;3.60;99.90
13742;DHT22;8461;52.356;10.704;2022-09-30T02:46:26;3.60;99.90
13742;DHT22;8461;52.356;10.704;2022-09-30T02:54:31;3.50;99.90
13742;DHT22;8461;52.356;10.704;2022-09-30T02:57:13;3.50;99.90
13742;DHT22;8461;52.356;10.704;2022-09-30T02:59:45;3.50;99.90
13742;DHT22;8461;52.356;10.704;2022-09-30T03:02:10;3.40;99.90
13742;DHT22;8461;52.356;10.704;2022-09-30T03:04:38;3.40;99.90
13742;DHT22;8461;52.356;10.704;2022-09-30T03:07:05;3.50;99.90
13742;DHT22;8461;52.356;10.704;2022-09-30T03:09:34;3.50;99.90
13742;DHT22;8461;52.356;10.704;2022-09-30T03:12:10;3.40;99.90
13742;DHT22;8461;52.356;10.704;2022-09-30T03:14:54;3.40;99.90
13742;DHT22;8461;52.356;10.704;2022-09-30T03:28:22;3.50;99.90
13742;DHT22;8461;52.356;10.704;2022-09-30T03:36:56;3.60;99.90
13742;DHT22;8461;52.356;10.704;2022-09-30T03:45:27;3.60;99.90
13742;DHT22;8461;52.356;10.704;2022-09-30T03:47:57;3.60;99.90
13742;DHT22;8461;52.356;10.704;2022-09-30T03:50:27;3.50;99.90
13742;DHT22;8461;52.356;10.704;2022-09-30T03:52:54;3.50;99.90
13742;DHT22;8461;52.356;10.704;2022-09-30T03:55:21;3.40;99.90
13742;DHT22;8461;52.356;10.704;2022-09-30T03:57:47;3.40;99.90
13742;DHT22;8461;52.356;10.704;2022-09-30T04:00:14;3.30;99.90
13742;DHT22;8461;52.356;10.704;2022-09-30T04:02:40;3.40;99.90
13742;DHT22;8461;52.356;10.704;2022-09-30T04:05:06;3.40;99.90
13742;DHT22;8461;52.356;10.704;2022-09-30T04:07:32;3.40;99.90
13742;DHT22;8461;52.356;10.704;2022-09-30T04:09:57;3.30;99.90
13742;DHT22;8461;52.356;10.704;2022-09-30T04:12:23;3.30;99.90
13742;DHT22;8461;52.356;10.704;2022-09-30T04:14:48;3.30;99.90
13742;DHT22;8461;52.356;10.704;2022-09-30T04:17:14;3.20;99.90
13742;DHT22;8461;52.356;10.704;2022-09-30T04:19:40;3.20;99.90
13742;DHT22;8461;52.356;10.704;2022-09-30T04:22:06;3.20;99.90
13742;DHT22;8461;52.356;10.704;2022-09-30T04:24:32;3.20;99.90
13742;DHT22;8461;52.356;10.704;2022-09-30T04:26:58;3.20;99.90
13742;DHT22;8461;52.356;10.704;2022-09-30T04:29:23;3.20;99.90
13742;DHT22;8461;52.356;10.704;2022-09-30T04:31:49;3.20;99.90
13742;DHT22;8461;52.356;10.704;2022-09-30T04:34:14;3.20;99.90
13742;DHT22;8461;52.356;10.704;2022-09-30T04:36:40;3.10;99.90
13742;DHT22;8461;52.356;10.704;2022-09-30T04:39:06;3.10;99.90
13742;DHT22;8461;52.356;10.704;2022-09-30T04:41:31;3.10;99.90
13742;DHT22;8461;52.356;10.704;2022-09-30T04:43:58;3.10;99.90
13742;DHT22;8461;52.356;10.704;2022-09-30T04:46:24;3.20;99.90
13742;DHT22;8461;52.356;10.704;2022-09-30T04:48:50;3.20;99.90
13742;DHT22;8461;52.356;10.704;2022-09-30T04:51:18;3.20;99.90
13742;DHT22;8461;52.356;10.704;2022-09-30T04:53:44;3.20;99.90
13742;DHT22;8461;52.356;10.704;2022-09-30T04:56:11;3.10;99.90
13742;DHT22;8461;52.356;10.704;2022-09-30T04:58:37;3.10;99.90
13742;DHT22;8461;52.356;10.704;2022-09-30T05:01:07;3.10;99.90
13742;DHT22;8461;52.356;10.704;2022-09-30T05:03:34;3.10;99.90
13742;DHT22;8461;52.356;10.704;2022-09-30T05:06:00;3.10;99.90
13742;DHT22;8461;52.356;10.704;2022-09-30T05:08:26;3.10;99.90
13742;DHT22;8461;52.356;10.704;2022-09-30T05:10:59;3.10;99.90
13742;DHT22;8461;52.356;10.704;2022-09-30T05:13:29;3.10;99.90
13742;DHT22;8461;52.356;10.704;2022-09-30T05:15:54;3.10;99.90
13742;DHT22;8461;52.356;10.704;2022-09-30T05:18:20;3.20;99.90
13742;DHT22;8461;52.356;10.704;2022-09-30T05:20:50;3.20;99.90
13742;DHT22;8461;52.356;10.704;2022-09-30T05:23:17;3.20;99.90
13742;DHT22;8461;52.356;10.704;2022-09-30T05:25:43;3.20;99.90
13742;DHT22;8461;52.356;10.704;2022-09-30T05:28:08;3.30;99.90
13742;DHT22;8461;52.356;10.704;2022-09-30T05:30:34;3.20;99.90
13742;DHT22;8461;52.356;10.704;2022-09-30T05:33:00;3.20;99.90
13742;DHT22;8461;52.356;10.704;2022-09-30T05:35:25;3.20;99.90
13742;DHT22;8461;52.356;10.704;2022-09-30T05:37:51;3.30;99.90
13742;DHT22;8461;52.356;10.704;2022-09-30T05:40:16;3.30;99.90
13742;DHT22;8461;52.356;10.704;2022-09-30T05:42:42;3.30;99.90
13742;DHT22;8461;52.356;10.704;2022-09-30T05:45:09;3.30;99.90
13742;DHT22;8461;52.356;10.704;2022-09-30T05:47:35;3.30;99.90
13742;DHT22;8461;52.356;10.704;2022-09-30T05:50:00;3.40;99.90
13742;DHT22;8461;52.356;10.704;2022-09-30T05:52:26;3.40;99.90
13742;DHT22;8461;52.356;10.704;2022-09-30T05:54:52;3.40;99.90
13742;DHT22;8461;52.356;10.704;2022-09-30T05:57:18;3.40;99.90
13742;DHT22;8461;52.356;10.704;2022-09-30T05:59:45;3.40;99.90
13742;DHT22;8461;52.356;10.704;2022-09-30T06:02:11;3.50;99.90
13742;DHT22;8461;52.356;10.704;2022-09-30T06:04:38;3.50;99.90
13742;DHT22;8461;52.356;10.704;2022-09-30T06:07:03;3.60;99.90
13742;DHT22;8461;52.356;10.704;2022-09-30T06:09:30;3.70;99.90
13742;DHT22;8461;52.356;10.704;2022-09-30T06:11:56;3.90;99.90
13742;DHT22;8461;52.356;10.704;2022-09-30T06:14:23;4.00;99.90
13742;DHT22;8461;52.356;10.704;2022-09-30T06:16:49;4.00;99.90
13742;DHT22;8461;52.356;10.704;2022-09-30T06:19:14;4.00;99.90
13742;DHT22;8461;52.356;10.704;2022-09-30T06:21:40;4.10;99.90
13742;DHT22;8461;52.356;10.704;2022-09-30T06:24:05;4.10;99.90
13742;DHT22;8461;52.356;10.704;2022-09-30T06:26:33;4.20;99.90
13742;DHT22;8461;52.356;10.704;2022-09-30T06:28:59;4.30;99.90
13742;DHT22;8461;52.356;10.704;2022-09-30T06:31:24;4.40;99.90
13742;DHT22;8461;52.356;10.704;2022-09-30T06:33:53;4.50;99.90
13742;DHT22;8461;52.356;10.704;2022-09-30T06:36:18;4.70;99.90
13742;DHT22;8461;52.356;10.704;2022-09-30T06:38:44;4.80;99.90
13742;DHT22;8461;52.356;10.704;2022-09-30T06:41:16;4.80;99.90
13742;DHT22;8461;52.356;10.704;2022-09-30T06:43:41;4.80;99.90
13742;DHT22;8461;52.356;10.704;2022-09-30T06:46:07;4.90;99.90
13742;DHT22;8461;52.356;10.704;2022-09-30T06:48:33;5.10;99.90
13742;DHT22;8461;52.356;10.704;2022-09-30T06:50:59;5.20;99.90
13742;DHT22;8461;52.356;10.704;2022-09-30T06:53:25;5.30;99.90
13742;DHT22;8461;52.356;10.704;2022-09-30T06:55:56;5.40;99.90
13742;DHT22;8461;52.356;10.704;2022-09-30T06:58:21;5.50;99.90
13742;DHT22;8461;52.356;10.704;2022-09-30T07:03:27;5.70;99.90
13742;DHT22;8461;52.356;10.704;2022-09-30T07:06:04;5.80;99.90
13742;DHT22;8461;52.356;10.704;2022-09-30T07:08:32;5.90;99.90
13742;DHT22;8461;52.356;10.704;2022-09-30T07:10:58;6.10;99.90
13742;DHT22;8461;52.356;10.704;2022-09-30T07:13:24;6.20;99.90
13742;DHT22;8461;52.356;10.704;2022-09-30T07:15:50;6.30;99.90
13742;DHT22;8461;52.356;10.704;2022-09-30T07:18:21;6.40;99.90
13742;DHT22;8461;52.356;10.704;2022-09-30T07:20:49;6.50;99.90
13742;DHT22;8461;52.356;10.704;2022-09-30T07:23:15;6.60;99.90
13742;DHT22;8461;52.356;10.704;2022-09-30T07:25:52;6.80;99.90
13742;DHT22;8461;52.356;10.704;2022-09-30T07:28:18;6.90;99.90
13742;DHT22;8461;52.356;10.704;2022-09-30T07:30:44;7.00;99.90
13742;DHT22;8461;52.356;10.704;2022-09-30T07:33:10;7.10;99.90
13742;DHT22;8461;52.356;10.704;2022-09-30T07:35:48;7.20;99.90
13742;DHT22;8461;52.356;10.704;2022-09-30T07:38:14;7.40;99.90
13742;DHT22;8461;52.356;10.704;2022-09-30T07:40:49;7.60;99.90
13742;DHT22;8461;52.356;10.704;2022-09-30T07:43:15;7.70;99.90
13742;DHT22;8461;52.356;10.704;2022-09-30T07:45:43;7.90;99.90
13742;DHT22;8461;52.356;10.704;2022-09-30T07:48:10;8.10;99.90
13742;DHT22;8461;52.356;10.704;2022-09-30T07:50:55;8.20;99.90
13742;DHT22;8461;52.356;10.704;2022-09-30T07:53:20;8.30;99.90
13742;DHT22;8461;52.356;10.704;2022-09-30T07:55:46;8.50;99.90
13742;DHT22;8461;52.356;10.704;2022-09-30T07:58:11;8.60;99.90
13742;DHT22;8461;52.356;10.704;2022-09-30T08:00:37;8.70;99.90
13742;DHT22;8461;52.356;10.704;2022-09-30T08:03:03;8.80;99.90
13742;DHT22;8461;52.356;10.704;2022-09-30T08:05:29;9.00;99.90
13742;DHT22;8461;52.356;10.704;2022-09-30T08:07:54;9.10;99.90
13742;DHT22;8461;52.356;10.704;2022-09-30T08:10:20;9.30;99.90
13742;DHT22;8461;52.356;10.704;2022-09-30T08:12:45;9.40;99.90
13742;DHT22;8461;52.356;10.704;2022-09-30T08:15:11;9.50;99.90
13742;DHT22;8461;52.356;10.704;2022-09-30T08:17:36;9.70;99.90
13742;DHT22;8461;52.356;10.704;2022-09-30T08:20:02;9.80;99.90
13742;DHT22;8461;52.356;10.704;2022-09-30T08:22:28;10.00;99.90
13742;DHT22;8461;52.356;10.704;2022-09-30T08:24:53;10.10;99.90
13742;DHT22;8461;52.356;10.704;2022-09-30T08:27:19;10.20;99.90
13742;DHT22;8461;52.356;10.704;2022-09-30T08:29:44;10.30;99.90
13742;DHT22;8461;52.356;10.704;2022-09-30T08:32:10;10.40;99.90
13742;DHT22;8461;52.356;10.704;2022-09-30T08:34:36;10.40;99.90
13742;DHT22;8461;52.356;10.704;2022-09-30T08:37:02;10.60;99.90
13742;DHT22;8461;52.356;10.704;2022-09-30T08:39:28;10.70;99.90
13742;DHT22;8461;52.356;10.704;2022-09-30T08:44:43;11.00;99.90
13742;DHT22;8461;52.356;10.704;2022-09-30T08:47:55;11.00;99.90
13742;DHT22;8461;52.356;10.704;2022-09-30T08:50:09;11.10;99.90
13742;DHT22;8461;52.356;10.704;2022-09-30T08:52:43;11.30;99.90
13742;DHT22;8461;52.356;10.704;2022-09-30T08:55:17;11.40;99.90
13742;DHT22;8461;52.356;10.704;2022-09-30T08:57:43;11.50;99.90
13742;DHT22;8461;52.356;10.704;2022-09-30T09:00:12;11.50;99.90
13742;DHT22;8461;52.356;10.704;2022-09-30T09:02:52;11.60;99.90
13742;DHT22;8461;52.356;10.704;2022-09-30T09:08:06;11.80;99.90
13742;DHT22;8461;52.356;10.704;2022-09-30T09:10:45;11.90;99.90
13742;DHT22;8461;52.356;10.704;2022-09-30T09:18:38;12.20;99.90
13742;DHT22;8461;52.356;10.704;2022-09-30T09:21:19;12.30;99.90
13742;DHT22;8461;52.356;10.704;2022-09-30T09:23:46;12.40;99.90
13742;DHT22;8461;52.356;10.704;2022-09-30T09:26:14;12.50;99.90
13742;DHT22;8461;52.356;10.704;2022-09-30T09:29:02;12.50;99.90
13742;DHT22;8461;52.356;10.704;2022-09-30T09:31:32;12.60;99.90
13742;DHT22;8461;52.356;10.704;2022-09-30T09:34:08;12.70;99.90
13742;DHT22;8461;52.356;10.704;2022-09-30T09:39:13;12.90;99.90
13742;DHT22;8461;52.356;10.704;2022-09-30T09:47:11;13.10;99.90
13742;DHT22;8461;52.356;10.704;2022-09-30T09:49:46;13.30;99.90
13742;DHT22;8461;52.356;10.704;2022-09-30T09:55:08;13.40;99.90
13742;DHT22;8461;52.356;10.704;2022-09-30T09:57:35;13.40;99.90
13742;DHT22;8461;52.356;10.704;2022-09-30T10:03:00;13.50;99.90
13742;DHT22;8461;52.356;10.704;2022-09-30T10:05:27;13.60;99.90
13742;DHT22;8461;52.356;10.704;2022-09-30T10:08:14;13.60;99.90
13742;DHT22;8461;52.356;10.704;2022-09-30T10:10:52;13.70;99.90
13742;DHT22;8461;52.356;10.704;2022-09-30T10:15:58;13.80;99.90
13742;DHT22;8461;52.356;10.704;2022-09-30T10:18:28;13.90;99.90
13742;DHT22;8461;52.356;10.704;2022-09-30T10:21:23;13.90;99.90
13742;DHT22;8461;52.356;10.704;2022-09-30T10:23:48;14.00;99.90
13742;DHT22;8461;52.356;10.704;2022-09-30T10:29:00;14.10;99.90
13742;DHT22;8461;52.356;10.704;2022-09-30T10:31:30;14.10;99.90
13742;DHT22;8461;52.356;10.704;2022-09-30T10:34:29;14.30;99.90
13742;DHT22;8461;52.356;10.704;2022-09-30T10:36:58;14.30;99.90
13742;DHT22;8461;52.356;10.704;2022-09-30T10:39:26;14.50;99.90
13742;DHT22;8461;52.356;10.704;2022-09-30T10:42:09;14.50;99.90
13742;DHT22;8461;52.356;10.704;2022-09-30T10:44:54;14.30;99.90
13742;DHT22;8461;52.356;10.704;2022-09-30T10:47:22;14.20;99.90
13742;DHT22;8461;52.356;10.704;2022-09-30T10:52:27;14.50;99.90
13742;DHT22;8461;52.356;10.704;2022-09-30T10:55:04;14.50;99.90
13742;DHT22;8461;52.356;10.704;2022-09-30T10:57:35;14.40;99.90
13742;DHT22;8461;52.356;10.704;2022-09-30T11:00:16;14.20;99.90
13742;DHT22;8461;52.356;10.704;2022-09-30T11:03:07;14.10;99.90
13742;DHT22;8461;52.356;10.704;2022-09-30T11:05:39;14.20;99.90
13742;DHT22;8461;52.356;10.704;2022-09-30T11:16:14;14.60;99.90
13742;DHT22;8461;52.356;10.704;2022-09-30T11:21:48;14.40;99.90
13742;DHT22;8461;52.356;10.704;2022-09-30T11:24:31;14.30;99.90
13742;DHT22;8461;52.356;10.704;2022-09-30T11:29:54;14.50;99.90
13742;DHT22;8461;52.356;10.704;2022-09-30T11:32:37;14.60;99.90
13742;DHT22;8461;52.356;10.704;2022-09-30T11:41:13;14.20;99.90
13742;DHT22;8461;52.356;10.704;2022-09-30T11:46:51;14.90;99.90
13742;DHT22;8461;52.356;10.704;2022-09-30T11:49:36;15.00;99.90
13742;DHT22;8461;52.356;10.704;2022-09-30T11:55:20;15.50;99.90
13742;DHT22;8461;52.356;10.704;2022-09-30T11:58:06;15.60;99.90
13742;DHT22;8461;52.356;10.704;2022-09-30T12:00:35;15.70;99.90
13742;DHT22;8461;52.356;10.704;2022-09-30T12:05:36;16.00;99.90
13742;DHT22;8461;52.356;10.704;2022-09-30T12:08:29;16.20;99.90
13742;DHT22;8461;52.356;10.704;2022-09-30T12:11:13;16.40;99.90
13742;DHT22;8461;52.356;10.704;2022-09-30T12:13:45;16.70;99.90
13742;DHT22;8461;52.356;10.704;2022-09-30T12:16:20;16.50;99.90
13742;DHT22;8461;52.356;10.704;2022-09-30T12:19:12;16.50;99.90
13742;DHT22;8461;52.356;10.704;2022-09-30T12:22:38;16.80;99.90
13742;DHT22;8461;52.356;10.704;2022-09-30T12:24:40;16.90;99.90
13742;DHT22;8461;52.356;10.704;2022-09-30T12:27:41;16.90;99.90
13742;DHT22;8461;52.356;10.704;2022-09-30T12:30:12;16.70;99.90
13742;DHT22;8461;52.356;10.704;2022-09-30T12:35:54;16.70;99.90
13742;DHT22;8461;52.356;10.704;2022-09-30T12:38:50;16.70;99.90
13742;DHT22;8461;52.356;10.704;2022-09-30T12:49:28;16.80;99.90
13742;DHT22;8461;52.356;10.704;2022-09-30T12:51:58;16.50;99.90
13742;DHT22;8461;52.356;10.704;2022-09-30T12:54:31;16.40;99.90
13742;DHT22;8461;52.356;10.704;2022-09-30T12:57:00;16.10;99.90
13742;DHT22;8461;52.356;10.704;2022-09-30T12:59:33;16.00;99.90
13742;DHT22;8461;52.356;10.704;2022-09-30T13:02:00;16.00;99.90
13742;DHT22;8461;52.356;10.704;2022-09-30T13:09:36;16.20;99.90
13742;DHT22;8461;52.356;10.704;2022-09-30T13:14:39;16.00;99.90
13742;DHT22;8461;52.356;10.704;2022-09-30T13:19:38;16.10;99.90
13742;DHT22;8461;52.356;10.704;2022-09-30T13:27:39;16.20;99.90
13742;DHT22;8461;52.356;10.704;2022-09-30T13:41:05;16.10;99.90
13742;DHT22;8461;52.356;10.704;2022-09-30T13:43:54;16.00;99.90
13742;DHT22;8461;52.356;10.704;2022-09-30T13:46:32;16.00;99.90
13742;DHT22;8461;52.356;10.704;2022-09-30T13:49:04;16.10;99.90
13742;DHT22;8461;52.356;10.704;2022-09-30T13:51:32;16.20;99.90
13742;DHT22;8461;52.356;10.704;2022-09-30T13:54:07;16.20;99.90
13742;DHT22;8461;52.356;10.704;2022-09-30T13:56:35;16.10;99.90
13742;DHT22;8461;52.356;10.704;2022-09-30T14:10:34;15.90;99.90
13742;DHT22;8461;52.356;10.704;2022-09-30T14:13:44;15.80;99.90
13742;DHT22;8461;52.356;10.704;2022-09-30T14:22:03;15.80;99.90
13742;DHT22;8461;52.356;10.704;2022-09-30T14:24:33;15.80;99.90
13742;DHT22;8461;52.356;10.704;2022-09-30T14:27:15;15.80;99.90
13742;DHT22;8461;52.356;10.704;2022-09-30T14:35:11;15.70;99.90
13742;DHT22;8461;52.356;10.704;2022-09-30T14:37:42;15.60;99.90
13742;DHT22;8461;52.356;10.704;2022-09-30T14:40:10;15.50;99.90
13742;DHT22;8461;52.356;10.704;2022-09-30T14:42:37;15.60;99.90
13742;DHT22;8461;52.356;10.704;2022-09-30T14:45:06;15.60;99.90
13742;DHT22;8461;52.356;10.704;2022-09-30T14:47:35;15.70;99.90
13742;DHT22;8461;52.356;10.704;2022-09-30T14:50:08;15.80;99.90
13742;DHT22;8461;52.356;10.704;2022-09-30T14:52:43;15.70;99.90
13742;DHT22;8461;52.356;10.704;2022-09-30T14:55:35;15.70;99.90
13742;DHT22;8461;52.356;10.704;2022-09-30T14:58:29;15.70;99.90
13742;DHT22;8461;52.356;10.704;2022-09-30T15:03:24;15.70;99.90
13742;DHT22;8461;52.356;10.704;2022-09-30T15:05:49;15.70;99.90
13742;DHT22;8461;52.356;10.704;2022-09-30T15:08:17;15.60;99.90
13742;DHT22;8461;52.356;10.704;2022-09-30T15:10:49;15.50;99.90
13742;DHT22;8461;52.356;10.704;2022-09-30T15:13:17;15.40;99.90
13742;DHT22;8461;52.356;10.704;2022-09-30T15:15:44;15.40;99.90
13742;DHT22;8461;52.356;10.704;2022-09-30T15:18:24;15.30;99.90
13742;DHT22;8461;52.356;10.704;2022-09-30T15:20:51;15.30;99.90
13742;DHT22;8461;52.356;10.704;2022-09-30T15:23:23;15.30;99.90
13742;DHT22;8461;52.356;10.704;2022-09-30T15:25:49;15.20;99.90
13742;DHT22;8461;52.356;10.704;2022-09-30T15:28:17;15.10;99.90
13742;DHT22;8461;52.356;10.704;2022-09-30T15:30:43;15.10;99.90
13742;DHT22;8461;52.356;10.704;2022-09-30T15:33:15;15.00;99.90
13742;DHT22;8461;52.356;10.704;2022-09-30T15:35:45;14.90;99.90
13742;DHT22;8461;52.356;10.704;2022-09-30T15:38:23;14.90;99.90
13742;DHT22;8461;52.356;10.704;2022-09-30T15:41:09;14.80;99.90
13742;DHT22;8461;52.356;10.704;2022-09-30T15:43:49;14.80;99.90
13742;DHT22;8461;52.356;10.704;2022-09-30T15:46:27;14.80;99.90
13742;DHT22;8461;52.356;10.704;2022-09-30T15:48:56;14.70;99.90
13742;DHT22;8461;52.356;10.704;2022-09-30T15:51:35;14.60;99.90
13742;DHT22;8461;52.356;10.704;2022-09-30T15:54:28;14.60;99.90
13742;DHT22;8461;52.356;10.704;2022-09-30T15:57:00;14.40;99.90
13742;DHT22;8461;52.356;10.704;2022-09-30T15:59:55;14.40;99.90
13742;DHT22;8461;52.356;10.704;2022-09-30T16:02:22;14.30;99.90
13742;DHT22;8461;52.356;10.704;2022-09-30T16:04:52;14.30;99.90
13742;DHT22;8461;52.356;10.704;2022-09-30T16:07:19;14.20;99.90
13742;DHT22;8461;52.356;10.704;2022-09-30T16:09:48;14.20;99.90
13742;DHT22;8461;52.356;10.704;2022-09-30T16:12:16;14.20;99.90
13742;DHT22;8461;52.356;10.704;2022-09-30T16:14:48;14.10;99.90
13742;DHT22;8461;52.356;10.704;2022-09-30T16:17:35;14.00;99.90
13742;DHT22;8461;52.356;10.704;2022-09-30T16:20:06;13.90;99.90
13742;DHT22;8461;52.356;10.704;2022-09-30T16:22:48;13.80;99.90
13742;DHT22;8461;52.356;10.704;2022-09-30T16:27:47;13.60;99.90
13742;DHT22;8461;52.356;10.704;2022-09-30T16:30:16;13.40;99.90
13742;DHT22;8461;52.356;10.704;2022-09-30T16:32:44;13.30;99.90
13742;DHT22;8461;52.356;10.704;2022-09-30T16:35:17;13.20;99.90
13742;DHT22;8461;52.356;10.704;2022-09-30T16:37:43;13.10;99.90
13742;DHT22;8461;52.356;10.704;2022-09-30T16:40:22;13.00;99.90
13742;DHT22;8461;52.356;10.704;2022-09-30T16:42:49;12.90;99.90
13742;DHT22;8461;52.356;10.704;2022-09-30T16:45:15;12.90;99.90
13742;DHT22;8461;52.356;10.704;2022-09-30T16:47:41;12.80;99.90
13742;DHT22;8461;52.356;10.704;2022-09-30T16:50:24;12.70;99.90
13742;DHT22;8461;52.356;10.704;2022-09-30T16:52:52;12.60;99.90
13742;DHT22;8461;52.356;10.704;2022-09-30T16:55:18;12.50;99.90
13742;DHT22;8461;52.356;10.704;2022-09-30T16:57:43;12.40;99.90
13742;DHT22;8461;52.356;10.704;2022-09-30T17:00:13;12.30;99.90
13742;DHT22;8461;52.356;10.704;2022-09-30T17:02:40;12.10;99.90
13742;DHT22;8461;52.356;10.704;2022-09-30T17:05:10;12.00;99.90
13742;DHT22;8461;52.356;10.704;2022-09-30T17:07:36;11.90;99.90
13742;DHT22;8461;52.356;10.704;2022-09-30T17:10:01;11.80;99.90
13742;DHT22;8461;52.356;10.704;2022-09-30T17:12:27;11.70;99.90
13742;DHT22;8461;52.356;10.704;2022-09-30T17:14:53;11.60;99.90
13742;DHT22;8461;52.356;10.704;2022-09-30T17:17:20;11.50;99.90
13742;DHT22;8461;52.356;10.704;2022-09-30T17:19:46;11.40;99.90
13742;DHT22;8461;52.356;10.704;2022-09-30T17:22:11;11.20;99.90
13742;DHT22;8461;52.356;10.704;2022-09-30T17:24:37;11.10;99.90
13742;DHT22;8461;52.356;10.704;2022-09-30T17:27:02;11.00;99.90
13742;DHT22;8461;52.356;10.704;2022-09-30T17:29:28;10.90;99.90
13742;DHT22;8461;52.356;10.704;2022-09-30T17:31:54;10.80;99.90
13742;DHT22;8461;52.356;10.704;2022-09-30T17:34:19;10.80;99.90
13742;DHT22;8461;52.356;10.704;2022-09-30T17:36:45;10.70;99.90
13742;DHT22;8461;52.356;10.704;2022-09-30T17:39:11;10.60;99.90
13742;DHT22;8461;52.356;10.704;2022-09-30T17:41:36;10.50;99.90
13742;DHT22;8461;52.356;10.704;2022-09-30T17:44:20;10.40;99.90
13742;DHT22;8461;52.356;10.704;2022-09-30T17:46:46;10.30;99.90
13742;DHT22;8461;52.356;10.704;2022-09-30T17:49:12;10.30;99.90
13742;DHT22;8461;52.356;10.704;2022-09-30T17:51:38;10.20;99.90
13742;DHT22;8461;52.356;10.704;2022-09-30T17:54:05;10.10;99.90
13742;DHT22;8461;52.356;10.704;2022-09-30T17:56:31;10.00;99.90
13742;DHT22;8461;52.356;10.704;2022-09-30T17:58:57;10.00;99.90
13742;DHT22;8461;52.356;10.704;2022-09-30T18:01:24;9.90;99.90
13742;DHT22;8461;52.356;10.704;2022-09-30T18:03:50;9.80;99.90
13742;DHT22;8461;52.356;10.704;2022-09-30T18:06:18;9.80;99.90
13742;DHT22;8461;52.356;10.704;2022-09-30T18:08:51;9.60;99.90
13742;DHT22;8461;52.356;10.704;2022-09-30T18:11:21;9.60;99.90
13742;DHT22;8461;52.356;10.704;2022-09-30T18:13:58;9.50;99.90
13742;DHT22;8461;52.356;10.704;2022-09-30T18:16:26;9.50;99.90
13742;DHT22;8461;52.356;10.704;2022-09-30T18:19:01;9.40;99.90
13742;DHT22;8461;52.356;10.704;2022-09-30T18:21:27;9.40;99.90
13742;DHT22;8461;52.356;10.704;2022-09-30T18:23:54;9.30;99.90
13742;DHT22;8461;52.356;10.704;2022-09-30T18:26:24;9.20;99.90
13742;DHT22;8461;52.356;10.704;2022-09-30T18:28:50;9.20;99.90
13742;DHT22;8461;52.356;10.704;2022-09-30T18:31:20;9.20;99.90
13742;DHT22;8461;52.356;10.704;2022-09-30T18:33:54;9.10;99.90
13742;DHT22;8461;52.356;10.704;2022-09-30T18:36:20;9.00;99.90
13742;DHT22;8461;52.356;10.704;2022-09-30T18:38:45;9.00;99.90
13742;DHT22;8461;52.356;10.704;2022-09-30T18:41:11;8.90;99.90
13742;DHT22;8461;52.356;10.704;2022-09-30T18:43:37;8.80;99.90
13742;DHT22;8461;52.356;10.704;2022-09-30T18:46:04;8.80;99.90
13742;DHT22;8461;52.356;10.704;2022-09-30T18:48:31;8.70;99.90
13742;DHT22;8461;52.356;10.704;2022-09-30T18:51:02;8.70;99.90
13742;DHT22;8461;52.356;10.704;2022-09-30T18:53:29;8.70;99.90
13742;DHT22;8461;52.356;10.704;2022-09-30T18:55:59;8.60;99.90
13742;DHT22;8461;52.356;10.704;2022-09-30T18:58:25;8.60;99.90
13742;DHT22;8461;52.356;10.704;2022-09-30T19:00:52;8.60;99.90
13742;DHT22;8461;52.356;10.704;2022-09-30T19:03:17;8.50;99.90